Main page
METAR-TAF:

METAR-TAF

Airports :

Jinnah International Airport

Karachi, Pakistan

latitude: 24-54N, longitude: 067-08E, elevation: 21 m

Current weather observation

The report was made 21 minutes ago, at 12:25 UTC
Wind 7 kt from the South
Temperature 33°C
Humidity 30%
Pressure 1009 hPa
Visibility: 5000 m
haze

METAR: OPKC 181225Z 18007KT 5000 HZ NSC 33/13 Q1009 NOSIG

Time: 17:46 (12:46 UTC)

Forecast

The report was made 2 hours and 46 minutes ago, at 10:00 UTC
Forecast valid from 18 at 12 UTC to 19 at 18 UTC
Wind 5 kt from the West/Southwest with gusts up to 15 kt
Visibility: 6000 m
From 18 at 1900 UTC
Wind 8 kt from the West
Visibility: 5000 m
haze
Temporary
from 19 at 01 UTC to 19 at 05 UTC
Wind 3 kt from variable directions
Visibility: 3000 m
smoke
From 19 at 0700 UTC
Wind 5 kt from the West/Southwest with gusts up to 15 kt
Visibility: 6000 m

TAF: OPKC 181000Z 1812/1918 25005G15KT 6000 NSC FM181900 27008KT 5000 HZ NSC TEMPO 1901/1905 VRB03KT 3000 FU NSC FM190700 24005G15KT 6000 NSC

Weather observations and forecasts of more than 4000 airports (METAR and TAF reports).

The available stations are represented by yellow and red dots on the map.

Hover mouse over dot to see the name of the station.

Then click to see weather observations and forecasts.

To change the map : click on the green buttons with a black cross to zoom in, on the green button with a dash to zoom out, or on the green arrows for adjacent maps.


METAR-TAF: